Terminal Aerodrome Forecast
Issued by NWS Sterling, VA

Current Version | Previous Version | Text Only | Print | Product List | Glossary Off
Versions: 1 2 3 4 5 6 7 8 9 10 11 12 13

000
FTUS41 KLWX 211445 AAA
TAFMRB
TAF AMD
KMRB 211445Z 2115/2212 20006KT 3SM -SHRA OVC045
     FM211600 22006KT 3SM SHRA OVC035
     FM211900 27008KT P6SM -SHRA OVC045
     FM212200 28007KT P6SM BKN050
     FM220200 29009KT P6SM SCT250=

USA.gov is the U.S. government's official web portal to all federal, state and local government web resources and services.